sensor_id;sensor_type;location;lat;lon;timestamp;temperature;humidity
12123;DHT22;6125;59.628;17.852;2022-08-19T00:00:47;19.80;99.90
12123;DHT22;6125;59.628;17.852;2022-08-19T00:06:42;19.80;99.90
12123;DHT22;6125;59.628;17.852;2022-08-19T00:12:33;19.70;99.90
12123;DHT22;6125;59.628;17.852;2022-08-19T00:18:27;19.70;99.90
12123;DHT22;6125;59.628;17.852;2022-08-19T00:24:19;19.70;99.90
12123;DHT22;6125;59.628;17.852;2022-08-19T00:30:10;19.60;99.90
12123;DHT22;6125;59.628;17.852;2022-08-19T00:36:04;19.70;99.90
12123;DHT22;6125;59.628;17.852;2022-08-19T00:41:54;19.70;99.90
12123;DHT22;6125;59.628;17.852;2022-08-19T00:47:49;19.70;99.90
12123;DHT22;6125;59.628;17.852;2022-08-19T00:53:46;19.60;99.90
12123;DHT22;6125;59.628;17.852;2022-08-19T00:59:39;19.70;99.90
12123;DHT22;6125;59.628;17.852;2022-08-19T01:05:33;19.70;99.90
12123;DHT22;6125;59.628;17.852;2022-08-19T01:08:04;19.70;99.90
12123;DHT22;6125;59.628;17.852;2022-08-19T01:13:59;19.70;99.90
12123;DHT22;6125;59.628;17.852;2022-08-19T01:19:53;19.70;99.90
12123;DHT22;6125;59.628;17.852;2022-08-19T01:25:49;19.70;99.90
12123;DHT22;6125;59.628;17.852;2022-08-19T01:31:43;19.70;99.90
12123;DHT22;6125;59.628;17.852;2022-08-19T01:37:43;19.80;99.90
12123;DHT22;6125;59.628;17.852;2022-08-19T01:43:37;19.80;99.90
12123;DHT22;6125;59.628;17.852;2022-08-19T01:49:29;19.80;99.90
12123;DHT22;6125;59.628;17.852;2022-08-19T01:55:22;19.90;99.90
12123;DHT22;6125;59.628;17.852;2022-08-19T02:01:13;19.90;99.90
12123;DHT22;6125;59.628;17.852;2022-08-19T02:10:39;20.00;99.90
12123;DHT22;6125;59.628;17.852;2022-08-19T02:16:31;20.00;99.90
12123;DHT22;6125;59.628;17.852;2022-08-19T02:22:22;20.00;99.90
12123;DHT22;6125;59.628;17.852;2022-08-19T02:28:15;20.00;99.90
12123;DHT22;6125;59.628;17.852;2022-08-19T02:34:07;20.10;99.90
12123;DHT22;6125;59.628;17.852;2022-08-19T02:39:59;20.10;99.90
12123;DHT22;6125;59.628;17.852;2022-08-19T02:45:49;20.10;99.90
12123;DHT22;6125;59.628;17.852;2022-08-19T02:51:44;20.10;99.90
12123;DHT22;6125;59.628;17.852;2022-08-19T02:57:33;20.20;99.90
12123;DHT22;6125;59.628;17.852;2022-08-19T03:03:23;20.10;99.90
12123;DHT22;6125;59.628;17.852;2022-08-19T03:09:38;20.10;99.90
12123;DHT22;6125;59.628;17.852;2022-08-19T03:15:30;20.20;99.90
12123;DHT22;6125;59.628;17.852;2022-08-19T03:21:23;20.20;99.90
12123;DHT22;6125;59.628;17.852;2022-08-19T03:27:16;20.10;99.90
12123;DHT22;6125;59.628;17.852;2022-08-19T03:29:43;20.10;99.90
12123;DHT22;6125;59.628;17.852;2022-08-19T03:35:36;20.10;99.90
12123;DHT22;6125;59.628;17.852;2022-08-19T03:41:38;20.20;99.90
12123;DHT22;6125;59.628;17.852;2022-08-19T03:47:29;20.20;99.90
12123;DHT22;6125;59.628;17.852;2022-08-19T03:53:20;20.20;99.90
12123;DHT22;6125;59.628;17.852;2022-08-19T03:59:14;20.20;99.90
12123;DHT22;6125;59.628;17.852;2022-08-19T04:05:05;20.30;99.90
12123;DHT22;6125;59.628;17.852;2022-08-19T04:10:56;20.30;99.90
12123;DHT22;6125;59.628;17.852;2022-08-19T04:16:48;20.40;99.90
12123;DHT22;6125;59.628;17.852;2022-08-19T04:22:39;20.50;99.90
12123;DHT22;6125;59.628;17.852;2022-08-19T04:28:31;20.60;99.90
12123;DHT22;6125;59.628;17.852;2022-08-19T04:31:02;20.60;99.90
12123;DHT22;6125;59.628;17.852;2022-08-19T04:36:58;20.70;99.90
12123;DHT22;6125;59.628;17.852;2022-08-19T04:42:54;20.80;99.90
12123;DHT22;6125;59.628;17.852;2022-08-19T04:48:44;20.80;99.90
12123;DHT22;6125;59.628;17.852;2022-08-19T04:54:36;20.90;99.90
12123;DHT22;6125;59.628;17.852;2022-08-19T05:00:30;21.00;99.90
12123;DHT22;6125;59.628;17.852;2022-08-19T05:06:21;21.00;99.90
12123;DHT22;6125;59.628;17.852;2022-08-19T05:12:13;21.10;99.90
12123;DHT22;6125;59.628;17.852;2022-08-19T05:18:07;21.10;99.90
12123;DHT22;6125;59.628;17.852;2022-08-19T05:24:14;21.30;99.90
12123;DHT22;6125;59.628;17.852;2022-08-19T05:30:05;21.40;99.90
12123;DHT22;6125;59.628;17.852;2022-08-19T05:36:08;21.50;99.90
12123;DHT22;6125;59.628;17.852;2022-08-19T05:42:00;21.70;99.90
12123;DHT22;6125;59.628;17.852;2022-08-19T05:47:50;21.90;99.90
12123;DHT22;6125;59.628;17.852;2022-08-19T05:53:44;22.00;99.90
12123;DHT22;6125;59.628;17.852;2022-08-19T05:59:34;21.90;99.90
12123;DHT22;6125;59.628;17.852;2022-08-19T06:05:24;22.10;99.90
12123;DHT22;6125;59.628;17.852;2022-08-19T06:11:21;22.20;99.90
12123;DHT22;6125;59.628;17.852;2022-08-19T06:17:11;22.40;99.90
12123;DHT22;6125;59.628;17.852;2022-08-19T06:23:01;22.40;99.90
12123;DHT22;6125;59.628;17.852;2022-08-19T06:28:52;22.40;99.90
12123;DHT22;6125;59.628;17.852;2022-08-19T06:34:45;22.50;99.90
12123;DHT22;6125;59.628;17.852;2022-08-19T06:40:38;22.60;99.90
12123;DHT22;6125;59.628;17.852;2022-08-19T06:46:32;22.80;99.90
12123;DHT22;6125;59.628;17.852;2022-08-19T06:52:38;22.90;99.90
12123;DHT22;6125;59.628;17.852;2022-08-19T06:58:36;23.10;99.90
12123;DHT22;6125;59.628;17.852;2022-08-19T07:04:30;23.20;99.90
12123;DHT22;6125;59.628;17.852;2022-08-19T07:10:20;23.30;99.90
12123;DHT22;6125;59.628;17.852;2022-08-19T07:16:13;23.40;99.90
12123;DHT22;6125;59.628;17.852;2022-08-19T07:22:07;23.40;99.90
12123;DHT22;6125;59.628;17.852;2022-08-19T07:28:01;23.70;99.90
12123;DHT22;6125;59.628;17.852;2022-08-19T07:33:55;23.70;99.90
12123;DHT22;6125;59.628;17.852;2022-08-19T07:39:46;23.80;99.90
12123;DHT22;6125;59.628;17.852;2022-08-19T07:45:37;23.80;99.90
12123;DHT22;6125;59.628;17.852;2022-08-19T07:51:27;23.90;99.90
12123;DHT22;6125;59.628;17.852;2022-08-19T07:57:20;24.00;99.90
12123;DHT22;6125;59.628;17.852;2022-08-19T08:03:09;24.10;99.90
12123;DHT22;6125;59.628;17.852;2022-08-19T08:08:59;24.30;99.90
12123;DHT22;6125;59.628;17.852;2022-08-19T08:19:08;24.60;99.90
12123;DHT22;6125;59.628;17.852;2022-08-19T08:25:02;24.80;99.90
12123;DHT22;6125;59.628;17.852;2022-08-19T08:30:52;25.00;99.90
12123;DHT22;6125;59.628;17.852;2022-08-19T08:36:45;25.20;99.90
12123;DHT22;6125;59.628;17.852;2022-08-19T08:42:36;25.50;99.90
12123;DHT22;6125;59.628;17.852;2022-08-19T08:48:37;25.60;99.90
12123;DHT22;6125;59.628;17.852;2022-08-19T08:54:34;25.80;99.90
12123;DHT22;6125;59.628;17.852;2022-08-19T09:00:29;26.00;99.90
12123;DHT22;6125;59.628;17.852;2022-08-19T09:06:34;26.10;99.90
12123;DHT22;6125;59.628;17.852;2022-08-19T09:09:10;26.20;99.90
12123;DHT22;6125;59.628;17.852;2022-08-19T09:18:29;26.50;99.90
12123;DHT22;6125;59.628;17.852;2022-08-19T09:24:30;26.60;99.90
12123;DHT22;6125;59.628;17.852;2022-08-19T09:30:22;26.80;99.90
12123;DHT22;6125;59.628;17.852;2022-08-19T09:36:17;27.00;99.90
12123;DHT22;6125;59.628;17.852;2022-08-19T09:42:09;27.10;99.90
12123;DHT22;6125;59.628;17.852;2022-08-19T09:44:42;27.10;99.90
12123;DHT22;6125;59.628;17.852;2022-08-19T09:50:31;27.30;99.90
12123;DHT22;6125;59.628;17.852;2022-08-19T09:56:28;27.50;99.90
12123;DHT22;6125;59.628;17.852;2022-08-19T10:02:18;27.70;99.90
12123;DHT22;6125;59.628;17.852;2022-08-19T10:08:25;27.80;99.90
12123;DHT22;6125;59.628;17.852;2022-08-19T10:14:17;28.10;99.90
12123;DHT22;6125;59.628;17.852;2022-08-19T10:20:10;28.20;99.90
12123;DHT22;6125;59.628;17.852;2022-08-19T10:26:03;28.40;99.90
12123;DHT22;6125;59.628;17.852;2022-08-19T10:31:57;28.60;99.90
12123;DHT22;6125;59.628;17.852;2022-08-19T10:37:54;28.70;99.90
12123;DHT22;6125;59.628;17.852;2022-08-19T10:43:50;28.90;99.90
12123;DHT22;6125;59.628;17.852;2022-08-19T10:49:42;29.20;99.90
12123;DHT22;6125;59.628;17.852;2022-08-19T10:55:50;29.60;99.90
12123;DHT22;6125;59.628;17.852;2022-08-19T11:08:24;30.20;99.90
12123;DHT22;6125;59.628;17.852;2022-08-19T11:14:19;30.40;99.90
12123;DHT22;6125;59.628;17.852;2022-08-19T11:20:10;30.70;99.90
12123;DHT22;6125;59.628;17.852;2022-08-19T11:26:03;31.00;99.90
12123;DHT22;6125;59.628;17.852;2022-08-19T11:31:52;30.90;99.90
12123;DHT22;6125;59.628;17.852;2022-08-19T11:37:45;30.80;99.90
12123;DHT22;6125;59.628;17.852;2022-08-19T11:40:19;30.90;99.90
12123;DHT22;6125;59.628;17.852;2022-08-19T11:46:16;31.30;99.90
12123;DHT22;6125;59.628;17.852;2022-08-19T11:52:25;31.60;99.90
12123;DHT22;6125;59.628;17.852;2022-08-19T11:58:23;31.70;99.90
12123;DHT22;6125;59.628;17.852;2022-08-19T12:04:19;31.50;99.90
12123;DHT22;6125;59.628;17.852;2022-08-19T12:10:26;31.90;99.90
12123;DHT22;6125;59.628;17.852;2022-08-19T12:16:25;32.20;99.90
12123;DHT22;6125;59.628;17.852;2022-08-19T12:22:20;31.90;99.90
12123;DHT22;6125;59.628;17.852;2022-08-19T12:28:15;31.70;99.90
12123;DHT22;6125;59.628;17.852;2022-08-19T12:34:08;31.60;99.90
12123;DHT22;6125;59.628;17.852;2022-08-19T12:39:59;31.80;99.90
12123;DHT22;6125;59.628;17.852;2022-08-19T12:45:49;32.20;99.90
12123;DHT22;6125;59.628;17.852;2022-08-19T12:51:39;32.60;99.90
12123;DHT22;6125;59.628;17.852;2022-08-19T12:57:32;32.50;99.90
12123;DHT22;6125;59.628;17.852;2022-08-19T13:03:25;32.00;99.90
12123;DHT22;6125;59.628;17.852;2022-08-19T13:09:20;31.70;99.90
12123;DHT22;6125;59.628;17.852;2022-08-19T13:15:11;31.70;99.90
12123;DHT22;6125;59.628;17.852;2022-08-19T13:21:03;31.90;99.90
12123;DHT22;6125;59.628;17.852;2022-08-19T13:26:53;32.30;99.90
12123;DHT22;6125;59.628;17.852;2022-08-19T13:32:50;32.80;99.90
12123;DHT22;6125;59.628;17.852;2022-08-19T13:38:59;32.80;99.90
12123;DHT22;6125;59.628;17.852;2022-08-19T13:41:28;32.80;99.90
12123;DHT22;6125;59.628;17.852;2022-08-19T13:47:18;33.00;99.90
12123;DHT22;6125;59.628;17.852;2022-08-19T13:53:10;33.20;99.90
12123;DHT22;6125;59.628;17.852;2022-08-19T13:59:00;33.90;99.90
12123;DHT22;6125;59.628;17.852;2022-08-19T14:04:50;34.40;99.90
12123;DHT22;6125;59.628;17.852;2022-08-19T14:10:44;33.10;99.90
12123;DHT22;6125;59.628;17.852;2022-08-19T14:16:36;32.90;99.90
12123;DHT22;6125;59.628;17.852;2022-08-19T14:22:30;33.20;99.90
12123;DHT22;6125;59.628;17.852;2022-08-19T14:28:22;33.40;99.90
12123;DHT22;6125;59.628;17.852;2022-08-19T14:34:11;34.10;99.90
12123;DHT22;6125;59.628;17.852;2022-08-19T14:40:04;34.20;99.90
12123;DHT22;6125;59.628;17.852;2022-08-19T14:45:59;33.40;99.90
12123;DHT22;6125;59.628;17.852;2022-08-19T14:51:57;33.40;99.90
12123;DHT22;6125;59.628;17.852;2022-08-19T14:57:48;33.70;99.90
12123;DHT22;6125;59.628;17.852;2022-08-19T15:03:41;33.30;99.90
12123;DHT22;6125;59.628;17.852;2022-08-19T15:09:33;32.60;99.90
12123;DHT22;6125;59.628;17.852;2022-08-19T15:15:24;32.00;99.90
12123;DHT22;6125;59.628;17.852;2022-08-19T15:17:54;31.80;99.90
12123;DHT22;6125;59.628;17.852;2022-08-19T15:23:51;31.80;99.90
12123;DHT22;6125;59.628;17.852;2022-08-19T15:29:40;31.90;99.90
12123;DHT22;6125;59.628;17.852;2022-08-19T15:35:30;32.20;99.90
12123;DHT22;6125;59.628;17.852;2022-08-19T15:41:27;32.90;99.90
12123;DHT22;6125;59.628;17.852;2022-08-19T15:47:19;33.40;99.90
12123;DHT22;6125;59.628;17.852;2022-08-19T15:53:10;33.10;99.90
12123;DHT22;6125;59.628;17.852;2022-08-19T15:59:16;32.20;99.90
12123;DHT22;6125;59.628;17.852;2022-08-19T16:05:26;31.60;99.90
12123;DHT22;6125;59.628;17.852;2022-08-19T16:11:38;31.40;99.90
12123;DHT22;6125;59.628;17.852;2022-08-19T16:17:30;31.00;99.90
12123;DHT22;6125;59.628;17.852;2022-08-19T16:23:20;30.70;99.90
12123;DHT22;6125;59.628;17.852;2022-08-19T16:29:11;30.60;99.90
12123;DHT22;6125;59.628;17.852;2022-08-19T16:35:04;30.50;99.90
12123;DHT22;6125;59.628;17.852;2022-08-19T16:40:57;30.50;99.90
12123;DHT22;6125;59.628;17.852;2022-08-19T16:46:48;30.30;99.90
12123;DHT22;6125;59.628;17.852;2022-08-19T16:52:52;30.40;99.90
12123;DHT22;6125;59.628;17.852;2022-08-19T16:58:44;30.10;99.90
12123;DHT22;6125;59.628;17.852;2022-08-19T17:04:34;30.30;99.90
12123;DHT22;6125;59.628;17.852;2022-08-19T17:10:25;31.10;99.90
12123;DHT22;6125;59.628;17.852;2022-08-19T17:16:18;31.20;99.90
12123;DHT22;6125;59.628;17.852;2022-08-19T17:18:47;31.00;99.90
12123;DHT22;6125;59.628;17.852;2022-08-19T17:24:39;30.90;99.90
12123;DHT22;6125;59.628;17.852;2022-08-19T17:30:34;30.00;99.90
12123;DHT22;6125;59.628;17.852;2022-08-19T17:36:25;29.30;99.90
12123;DHT22;6125;59.628;17.852;2022-08-19T17:42:16;28.70;99.90
12123;DHT22;6125;59.628;17.852;2022-08-19T17:48:08;28.20;99.90
12123;DHT22;6125;59.628;17.852;2022-08-19T17:54:01;27.80;99.90
12123;DHT22;6125;59.628;17.852;2022-08-19T17:59:52;27.50;99.90
12123;DHT22;6125;59.628;17.852;2022-08-19T18:05:43;27.30;99.90
12123;DHT22;6125;59.628;17.852;2022-08-19T18:11:40;27.00;99.90
12123;DHT22;6125;59.628;17.852;2022-08-19T18:20:54;26.80;99.90
12123;DHT22;6125;59.628;17.852;2022-08-19T18:26:48;26.70;99.90
12123;DHT22;6125;59.628;17.852;2022-08-19T18:32:42;26.50;99.90
12123;DHT22;6125;59.628;17.852;2022-08-19T18:38:37;26.40;99.90
12123;DHT22;6125;59.628;17.852;2022-08-19T18:44:44;26.30;99.90
12123;DHT22;6125;59.628;17.852;2022-08-19T18:51:01;26.20;99.90
12123;DHT22;6125;59.628;17.852;2022-08-19T18:56:55;26.00;99.90
12123;DHT22;6125;59.628;17.852;2022-08-19T19:02:56;25.90;99.90
12123;DHT22;6125;59.628;17.852;2022-08-19T19:08:46;25.70;99.90
12123;DHT22;6125;59.628;17.852;2022-08-19T19:14:42;25.50;99.90
12123;DHT22;6125;59.628;17.852;2022-08-19T19:17:13;25.50;99.90
12123;DHT22;6125;59.628;17.852;2022-08-19T19:23:08;25.30;99.90
12123;DHT22;6125;59.628;17.852;2022-08-19T19:28:58;25.10;99.90
12123;DHT22;6125;59.628;17.852;2022-08-19T19:34:49;24.90;99.90
12123;DHT22;6125;59.628;17.852;2022-08-19T19:40:39;24.80;99.90
12123;DHT22;6125;59.628;17.852;2022-08-19T19:46:33;24.80;99.90
12123;DHT22;6125;59.628;17.852;2022-08-19T19:52:28;24.70;99.90
12123;DHT22;6125;59.628;17.852;2022-08-19T19:58:18;24.50;99.90
12123;DHT22;6125;59.628;17.852;2022-08-19T20:00:47;24.50;99.90
12123;DHT22;6125;59.628;17.852;2022-08-19T20:06:39;24.40;99.90
12123;DHT22;6125;59.628;17.852;2022-08-19T20:12:34;24.40;99.90
12123;DHT22;6125;59.628;17.852;2022-08-19T20:22:03;24.20;99.90
12123;DHT22;6125;59.628;17.852;2022-08-19T20:27:55;24.10;99.90
12123;DHT22;6125;59.628;17.852;2022-08-19T20:33:47;24.00;99.90
12123;DHT22;6125;59.628;17.852;2022-08-19T20:39:39;24.00;99.90
12123;DHT22;6125;59.628;17.852;2022-08-19T20:45:32;23.90;99.90
12123;DHT22;6125;59.628;17.852;2022-08-19T20:51:31;23.90;99.90
12123;DHT22;6125;59.628;17.852;2022-08-19T20:57:26;23.90;99.90
12123;DHT22;6125;59.628;17.852;2022-08-19T21:03:18;23.80;99.90
12123;DHT22;6125;59.628;17.852;2022-08-19T21:09:10;23.80;99.90
12123;DHT22;6125;59.628;17.852;2022-08-19T21:15:00;23.80;99.90
12123;DHT22;6125;59.628;17.852;2022-08-19T21:21:21;23.80;99.90
12123;DHT22;6125;59.628;17.852;2022-08-19T21:27:10;23.70;99.90
12123;DHT22;6125;59.628;17.852;2022-08-19T21:33:00;23.60;99.90
12123;DHT22;6125;59.628;17.852;2022-08-19T21:38:51;23.60;99.90
12123;DHT22;6125;59.628;17.852;2022-08-19T21:44:46;23.50;99.90
12123;DHT22;6125;59.628;17.852;2022-08-19T21:50:37;23.40;99.90
12123;DHT22;6125;59.628;17.852;2022-08-19T21:56:33;23.40;99.90
12123;DHT22;6125;59.628;17.852;2022-08-19T22:02:24;23.30;99.90
12123;DHT22;6125;59.628;17.852;2022-08-19T22:08:15;23.20;99.90
12123;DHT22;6125;59.628;17.852;2022-08-19T22:14:10;23.10;99.90
12123;DHT22;6125;59.628;17.852;2022-08-19T22:20:04;23.10;99.90
12123;DHT22;6125;59.628;17.852;2022-08-19T22:25:58;23.00;99.90
12123;DHT22;6125;59.628;17.852;2022-08-19T22:31:49;22.90;99.90
12123;DHT22;6125;59.628;17.852;2022-08-19T22:37:41;22.90;99.90
12123;DHT22;6125;59.628;17.852;2022-08-19T22:43:31;22.90;99.90
12123;DHT22;6125;59.628;17.852;2022-08-19T22:49:23;22.90;99.90
12123;DHT22;6125;59.628;17.852;2022-08-19T22:55:14;23.00;99.90
12123;DHT22;6125;59.628;17.852;2022-08-19T22:57:45;23.00;99.90
12123;DHT22;6125;59.628;17.852;2022-08-19T23:03:35;23.10;99.90
12123;DHT22;6125;59.628;17.852;2022-08-19T23:09:26;23.00;99.90
12123;DHT22;6125;59.628;17.852;2022-08-19T23:15:20;23.00;99.90
12123;DHT22;6125;59.628;17.852;2022-08-19T23:21:15;23.00;99.90
12123;DHT22;6125;59.628;17.852;2022-08-19T23:27:12;23.00;99.90
12123;DHT22;6125;59.628;17.852;2022-08-19T23:33:23;23.00;99.90
12123;DHT22;6125;59.628;17.852;2022-08-19T23:39:15;23.00;99.90
12123;DHT22;6125;59.628;17.852;2022-08-19T23:45:08;23.00;99.90
12123;DHT22;6125;59.628;17.852;2022-08-19T23:50:57;23.10;99.90
12123;DHT22;6125;59.628;17.852;2022-08-19T23:56:48;23.10;99.90
